Terminal Aerodrome Forecast
Issued by NWS Twin Cities, MN

Home | Current Version | Previous Version | Text Only | Print | Product List | Glossary Off
Versions: 1 2 3 4 5 6 7 8 9 10 11 12 13 14 15 16 17 18 19 20 21 22

000
FTUS43 KMPX 311000 AAA
TAFSTC
TAF AMD
KSTC 311035Z 3111/0106 13007KT P6SM VCSH SCT004 BKN080
      TEMPO 3111/3114 5SM BR OVC004
     FM311400 15009KT P6SM SCT050 BKN120
     FM311600 15014G21KT P6SM SCT150
     FM312100 17013G20KT P6SM VCTS SCT030CB BKN070
      TEMPO 3122/0102 2SM TSRA BKN020CB OVC050
     FM010300 22008KT P6SM SCT020 BKN090=

USA.gov is the U.S. government's official web portal to all federal, state and local government web resources and services.